createdAt,value
2022-09-20T00:01:27.290Z,16.05
2022-09-20T00:03:59.723Z,16.05
2022-09-20T00:06:29.687Z,16.05
2022-09-20T00:08:59.622Z,16.05
2022-09-20T00:11:30.195Z,16.04
2022-09-20T00:14:00.526Z,16.06
2022-09-20T00:16:31.554Z,16.04
2022-09-20T00:19:04.196Z,16.03
2022-09-20T00:21:34.091Z,16.00
2022-09-20T00:24:02.322Z,16.01
2022-09-20T00:26:30.860Z,16.00
2022-09-20T00:28:59.564Z,16.01
2022-09-20T00:31:28.525Z,16.00
2022-09-20T00:34:14.230Z,16.00
2022-09-20T00:36:44.513Z,16.00
2022-09-20T00:39:14.713Z,15.99
2022-09-20T00:41:43.349Z,15.99
2022-09-20T00:44:48.854Z,16.01
2022-09-20T00:47:25.658Z,15.99
2022-09-20T00:49:58.883Z,16.00
2022-09-20T00:52:30.554Z,16.00
2022-09-20T00:55:00.913Z,16.01
2022-09-20T00:57:35.286Z,16.03
2022-09-20T01:00:07.874Z,16.03
2022-09-20T01:02:40.349Z,16.04
2022-09-20T01:05:10.584Z,16.05
2022-09-20T01:07:40.868Z,16.05
2022-09-20T01:10:09.571Z,16.06
2022-09-20T01:12:40.790Z,16.05
2022-09-20T01:15:10.801Z,16.04
2022-09-20T01:17:43.106Z,16.07
2022-09-20T01:20:17.358Z,16.07
2022-09-20T01:22:59.153Z,16.05
2022-09-20T01:25:43.103Z,16.04
2022-09-20T01:28:12.740Z,16.07
2022-09-20T01:30:47.062Z,16.15
2022-09-20T01:33:24.996Z,16.16
2022-09-20T01:35:55.856Z,16.18
2022-09-20T01:38:37.344Z,16.19
2022-09-20T01:41:12.471Z,16.11
2022-09-20T01:43:50.108Z,16.09
2022-09-20T01:46:30.138Z,16.07
2022-09-20T01:49:12.449Z,16.09
2022-09-20T01:52:24.472Z,16.07
2022-09-20T01:55:11.046Z,16.07
2022-09-20T01:58:10.856Z,16.06
2022-09-20T02:01:00.251Z,16.06
2022-09-20T02:04:06.772Z,16.07
2022-09-20T02:06:51.905Z,16.06
2022-09-20T02:09:43.018Z,16.07
2022-09-20T02:12:43.768Z,16.07
2022-09-20T02:15:27.001Z,16.08
2022-09-20T02:18:09.013Z,16.08
2022-09-20T02:20:47.946Z,16.08
2022-09-20T02:23:29.261Z,16.08
2022-09-20T02:26:11.028Z,16.10
2022-09-20T02:28:56.047Z,16.10
2022-09-20T02:31:55.396Z,16.11
2022-09-20T02:34:43.310Z,16.11
2022-09-20T02:37:33.195Z,16.12
2022-09-20T02:40:15.120Z,16.12
2022-09-20T02:42:48.842Z,16.12
2022-09-20T02:45:25.634Z,16.10
2022-09-20T02:47:57.851Z,16.10
2022-09-20T02:50:38.752Z,16.10
2022-09-20T02:53:24.599Z,16.08
2022-09-20T02:56:04.642Z,16.09
2022-09-20T02:58:43.695Z,16.07
2022-09-20T03:01:24.068Z,16.04
2022-09-20T03:04:03.515Z,16.03
2022-09-20T03:06:44.892Z,16.00
2022-09-20T03:09:20.578Z,15.99
2022-09-20T03:12:01.605Z,15.98
2022-09-20T03:14:37.103Z,15.97
2022-09-20T03:17:19.876Z,15.96
2022-09-20T03:20:09.720Z,15.93
2022-09-20T03:22:50.002Z,15.91
2022-09-20T03:25:35.309Z,15.89
2022-09-20T03:28:14.221Z,15.88
2022-09-20T03:30:56.323Z,15.86
2022-09-20T03:33:35.093Z,15.86
2022-09-20T03:36:16.456Z,15.84
2022-09-20T03:39:03.544Z,15.84
2022-09-20T03:41:59.549Z,15.81
2022-09-20T03:44:42.574Z,15.80
2022-09-20T03:47:28.214Z,15.78
2022-09-20T03:50:21.482Z,15.78
2022-09-20T03:53:13.793Z,15.77
2022-09-20T03:56:02.736Z,15.76
2022-09-20T03:58:45.586Z,15.75
2022-09-20T04:01:32.723Z,15.75
2022-09-20T04:04:09.133Z,15.75
2022-09-20T04:06:54.701Z,15.74
2022-09-20T04:10:03.877Z,15.73
2022-09-20T04:12:46.006Z,15.71
2022-09-20T04:15:30.564Z,15.72
2022-09-20T04:18:05.407Z,15.71
2022-09-20T04:20:44.335Z,15.70
2022-09-20T04:23:26.903Z,15.70
2022-09-20T04:25:54.992Z,15.65
2022-09-20T04:28:29.865Z,15.64
2022-09-20T04:31:07.310Z,15.60
2022-09-20T04:33:41.258Z,15.59
2022-09-20T04:36:29.453Z,15.56
2022-09-20T04:39:08.443Z,15.52
2022-09-20T04:42:09.300Z,15.49
2022-09-20T04:45:11.494Z,15.46
2022-09-20T04:48:06.936Z,15.43
2022-09-20T04:51:01.482Z,15.40
2022-09-20T04:53:44.854Z,15.36
2022-09-20T04:56:22.193Z,15.32
2022-09-20T04:59:00.468Z,15.29
2022-09-20T05:02:08.008Z,15.26
2022-09-20T05:05:06.358Z,15.23
2022-09-20T05:08:24.597Z,15.19
2022-09-20T05:11:32.067Z,15.19
2022-09-20T05:14:24.942Z,15.15
2022-09-20T05:17:08.163Z,15.15
2022-09-20T05:19:56.057Z,15.15
2022-09-20T05:22:45.230Z,15.12
2022-09-20T05:25:45.286Z,15.12
2022-09-20T05:28:22.898Z,15.09
2022-09-20T05:30:54.328Z,15.05
2022-09-20T05:33:29.832Z,15.04
2022-09-20T05:36:09.967Z,15.01
2022-09-20T05:38:48.670Z,15.00
2022-09-20T05:41:25.267Z,14.98
2022-09-20T05:44:03.350Z,14.95
2022-09-20T05:46:42.370Z,14.91
2022-09-20T05:49:19.356Z,14.87
2022-09-20T05:52:08.604Z,14.83
2022-09-20T05:55:07.667Z,14.79
2022-09-20T05:57:49.128Z,14.74
2022-09-20T06:00:21.040Z,14.71
2022-09-20T06:02:59.560Z,14.69
2022-09-20T06:05:36.258Z,14.67
2022-09-20T06:08:31.066Z,14.63
2022-09-20T06:11:10.272Z,14.59
2022-09-20T06:13:52.136Z,14.58
2022-09-20T06:16:30.023Z,14.56
2022-09-20T06:19:06.329Z,14.61
2022-09-20T06:21:43.920Z,14.64
2022-09-20T06:24:32.640Z,14.68
2022-09-20T06:27:05.260Z,14.69
2022-09-20T06:29:36.668Z,14.69
2022-09-20T06:32:04.902Z,14.72
2022-09-20T06:34:33.546Z,14.74
2022-09-20T06:37:29.207Z,14.73
2022-09-20T06:40:25.329Z,14.72
2022-09-20T06:42:54.029Z,14.85
2022-09-20T06:45:22.180Z,14.94
2022-09-20T06:47:50.379Z,14.99
2022-09-20T06:50:19.545Z,15.05
2022-09-20T06:52:47.816Z,15.08
2022-09-20T06:55:27.203Z,15.16
2022-09-20T06:57:57.159Z,15.20
2022-09-20T07:00:25.503Z,15.26
2022-09-20T07:02:54.041Z,15.29
2022-09-20T07:05:22.318Z,15.33
2022-09-20T07:07:50.397Z,15.37
2022-09-20T07:10:19.836Z,15.41
2022-09-20T07:12:48.066Z,15.44
2022-09-20T07:15:17.076Z,15.46
2022-09-20T07:17:45.964Z,15.49
2022-09-20T07:20:16.555Z,15.45
2022-09-20T07:22:49.301Z,15.46
2022-09-20T07:25:18.441Z,15.49
2022-09-20T07:27:48.430Z,15.52
2022-09-20T07:30:16.637Z,15.54
2022-09-20T07:32:44.932Z,15.63
2022-09-20T07:35:13.663Z,15.68
2022-09-20T07:37:42.415Z,15.73
2022-09-20T07:40:12.252Z,15.78
2022-09-20T07:42:40.470Z,15.90
2022-09-20T07:45:13.415Z,15.99
2022-09-20T07:47:42.285Z,16.14
2022-09-20T07:50:11.308Z,16.22
2022-09-20T07:52:39.604Z,16.26
2022-09-20T07:55:08.345Z,16.34
2022-09-20T07:57:38.076Z,16.32
2022-09-20T08:00:08.649Z,16.33
2022-09-20T08:02:38.155Z,16.34
2022-09-20T08:05:06.818Z,16.36
2022-09-20T08:07:34.974Z,16.39
2022-09-20T08:10:03.119Z,16.41
2022-09-20T08:15:21.135Z,16.53
2022-09-20T08:17:50.811Z,16.58
2022-09-20T08:20:19.552Z,16.66
2022-09-20T08:23:06.274Z,16.72
2022-09-20T08:25:36.394Z,16.78
2022-09-20T08:28:04.592Z,16.84
2022-09-20T08:30:32.689Z,16.91
2022-09-20T08:33:05.091Z,16.94
2022-09-20T08:35:38.148Z,16.96
2022-09-20T08:40:59.646Z,16.98
2022-09-20T08:43:32.188Z,16.96
2022-09-20T08:46:05.507Z,16.95
2022-09-20T08:48:35.555Z,16.96
2022-09-20T08:51:06.035Z,17.00
2022-09-20T08:53:35.441Z,17.05
2022-09-20T08:56:04.829Z,17.10
2022-09-20T08:58:33.147Z,17.14
2022-09-20T09:01:02.042Z,17.24
2022-09-20T09:03:30.147Z,17.33
2022-09-20T09:06:01.328Z,17.46
2022-09-20T09:08:38.258Z,17.55
2022-09-20T09:11:10.076Z,17.68
2022-09-20T09:13:45.631Z,17.78
2022-09-20T09:16:22.523Z,17.89
2022-09-20T09:18:53.215Z,17.96
2022-09-20T09:21:25.226Z,18.00
2022-09-20T09:23:58.029Z,18.00
2022-09-20T09:26:27.096Z,18.04
2022-09-20T09:29:17.147Z,18.02
2022-09-20T09:31:47.026Z,18.02
2022-09-20T09:34:25.408Z,18.00
2022-09-20T09:36:56.036Z,18.00
2022-09-20T09:39:26.856Z,17.99
2022-09-20T09:41:55.645Z,18.00
2022-09-20T09:44:27.865Z,18.03
2022-09-20T09:46:57.618Z,18.05
2022-09-20T09:49:27.608Z,18.09
2022-09-20T09:52:13.122Z,18.12
2022-09-20T09:54:44.748Z,18.16
2022-09-20T09:57:28.955Z,18.19
2022-09-20T10:00:16.213Z,18.27
2022-09-20T10:03:17.319Z,18.37
2022-09-20T10:05:56.957Z,18.47
2022-09-20T10:08:41.011Z,18.54
2022-09-20T10:11:20.520Z,18.62
2022-09-20T10:13:58.600Z,18.71
2022-09-20T10:16:34.090Z,18.76
2022-09-20T10:19:12.701Z,18.86
2022-09-20T10:21:52.557Z,18.96
2022-09-20T10:24:33.953Z,19.04
2022-09-20T10:27:23.275Z,19.08
2022-09-20T10:30:04.519Z,19.13
2022-09-20T10:32:54.057Z,19.15
2022-09-20T10:35:31.066Z,19.15
2022-09-20T10:38:14.252Z,19.18
2022-09-20T10:41:21.655Z,19.15
2022-09-20T10:44:05.726Z,19.10
2022-09-20T10:46:46.924Z,19.12
2022-09-20T10:49:36.862Z,19.08
2022-09-20T10:52:16.636Z,19.10
2022-09-20T10:55:04.648Z,19.11
2022-09-20T10:57:52.446Z,19.12
2022-09-20T11:00:23.942Z,19.11
2022-09-20T11:03:11.536Z,19.09
2022-09-20T11:05:48.602Z,19.20
2022-09-20T11:08:22.933Z,19.26
2022-09-20T11:10:55.713Z,19.36
2022-09-20T11:13:31.877Z,19.56
2022-09-20T11:16:06.130Z,19.72
2022-09-20T11:18:41.048Z,19.73
2022-09-20T11:21:16.684Z,19.72
2022-09-20T11:23:51.386Z,19.63
2022-09-20T11:26:29.274Z,19.63
2022-09-20T11:29:06.805Z,19.60
2022-09-20T11:31:40.333Z,19.54
2022-09-20T11:34:15.690Z,19.45
2022-09-20T11:36:52.406Z,19.35
2022-09-20T11:39:26.739Z,19.25
2022-09-20T11:42:00.034Z,19.22
2022-09-20T11:44:30.081Z,19.19
2022-09-20T11:47:04.530Z,19.12
2022-09-20T11:49:56.360Z,19.10
2022-09-20T11:52:41.127Z,19.12
2022-09-20T11:55:32.462Z,19.12
2022-09-20T11:58:03.599Z,19.18
2022-09-20T12:00:36.499Z,19.19
2022-09-20T12:03:07.590Z,19.25
2022-09-20T12:05:39.171Z,19.26
2022-09-20T12:08:08.710Z,19.39
2022-09-20T12:10:40.471Z,19.58
2022-09-20T12:13:21.467Z,19.74
2022-09-20T12:16:00.735Z,19.83
2022-09-20T12:18:38.081Z,19.86
2022-09-20T12:21:15.942Z,19.91
2022-09-20T12:23:45.966Z,19.91
2022-09-20T12:26:38.893Z,19.85
2022-09-20T12:29:54.334Z,19.75
2022-09-20T12:32:47.021Z,19.68
2022-09-20T12:36:00.705Z,19.59
2022-09-20T12:38:38.151Z,19.47
2022-09-20T12:41:27.508Z,19.38
2022-09-20T12:44:00.662Z,19.38
2022-09-20T12:46:43.830Z,19.56
2022-09-20T12:49:52.819Z,19.78
2022-09-20T12:52:52.330Z,19.88
2022-09-20T12:55:43.898Z,19.86
2022-09-20T12:58:23.014Z,19.91
2022-09-20T13:01:14.535Z,19.90
2022-09-20T13:03:44.074Z,19.71
2022-09-20T13:06:27.220Z,19.71
2022-09-20T13:09:04.351Z,19.62
2022-09-20T13:11:39.846Z,19.54
2022-09-20T13:14:14.036Z,19.48
2022-09-20T13:16:52.248Z,19.54
2022-09-20T13:19:22.479Z,19.45
2022-09-20T13:21:57.847Z,19.61
2022-09-20T13:24:28.905Z,19.78
2022-09-20T13:27:02.627Z,19.90
2022-09-20T13:29:35.307Z,19.91
2022-09-20T13:32:17.717Z,19.95
2022-09-20T13:34:46.652Z,20.09
2022-09-20T13:37:21.129Z,20.28
2022-09-20T13:39:55.075Z,20.24
2022-09-20T13:42:23.909Z,20.24
2022-09-20T13:44:52.743Z,20.22
2022-09-20T13:47:26.250Z,20.41
2022-09-20T13:49:54.879Z,20.57
2022-09-20T13:52:30.532Z,20.35
2022-09-20T13:54:58.880Z,20.21
2022-09-20T13:57:29.292Z,19.99
2022-09-20T13:59:58.271Z,19.80
2022-09-20T14:02:31.011Z,19.62
2022-09-20T14:05:03.024Z,19.47
2022-09-20T14:07:33.993Z,19.41
2022-09-20T14:10:02.185Z,19.50
2022-09-20T14:12:30.628Z,19.52
2022-09-20T14:14:59.645Z,19.56
2022-09-20T14:17:33.355Z,19.56
2022-09-20T14:20:01.891Z,19.50
2022-09-20T14:22:30.788Z,19.50
2022-09-20T14:25:03.153Z,19.46
2022-09-20T14:27:32.102Z,19.38
2022-09-20T14:30:00.531Z,19.34
2022-09-20T14:32:42.629Z,19.28
2022-09-20T14:35:18.495Z,19.31
2022-09-20T14:37:49.712Z,19.38
2022-09-20T14:40:24.112Z,19.39
2022-09-20T14:42:55.505Z,19.38
2022-09-20T14:45:27.369Z,19.44
2022-09-20T14:48:06.728Z,19.44
2022-09-20T14:50:41.111Z,19.46
2022-09-20T14:53:28.238Z,19.40
2022-09-20T14:56:00.665Z,19.42
2022-09-20T14:58:29.030Z,19.40
2022-09-20T15:01:01.794Z,19.40
2022-09-20T15:03:34.146Z,19.28
2022-09-20T15:06:02.264Z,19.15
2022-09-20T15:08:30.555Z,19.02
2022-09-20T15:11:00.512Z,18.88
2022-09-20T15:13:28.735Z,18.77
2022-09-20T15:15:57.198Z,18.78
2022-09-20T15:18:27.535Z,18.79
2022-09-20T15:20:56.603Z,18.75
2022-09-20T15:23:25.353Z,18.73
2022-09-20T15:25:55.817Z,18.68
2022-09-20T15:28:26.819Z,18.71
2022-09-20T15:30:54.974Z,18.70
2022-09-20T15:33:23.295Z,18.67
2022-09-20T15:35:51.651Z,18.62
2022-09-20T15:38:20.556Z,18.61
2022-09-20T15:40:50.399Z,18.61
2022-09-20T15:43:21.938Z,18.54
2022-09-20T15:45:53.955Z,18.56
2022-09-20T15:48:24.265Z,18.57
2022-09-20T15:51:02.422Z,18.54
2022-09-20T15:53:33.613Z,18.54
2022-09-20T15:56:02.688Z,18.56
2022-09-20T15:58:35.898Z,18.61
2022-09-20T16:01:08.208Z,18.64
2022-09-20T16:03:37.660Z,18.61
2022-09-20T16:06:08.613Z,18.63
2022-09-20T16:08:38.456Z,18.60
2022-09-20T16:11:07.319Z,18.57
2022-09-20T16:13:36.416Z,18.57
2022-09-20T16:16:07.301Z,18.59
2022-09-20T16:18:54.519Z,18.56
2022-09-20T16:21:23.372Z,18.50
2022-09-20T16:23:53.339Z,18.56
2022-09-20T16:26:23.468Z,18.58
2022-09-20T16:28:52.071Z,18.56
2022-09-20T16:31:40.063Z,18.57
2022-09-20T16:34:14.037Z,18.62
2022-09-20T16:36:43.518Z,18.65
2022-09-20T16:39:13.192Z,18.67
2022-09-20T16:41:41.619Z,18.66
2022-09-20T16:44:09.842Z,18.68
2022-09-20T16:46:40.178Z,18.71
2022-09-20T16:49:11.713Z,18.74
2022-09-20T16:51:40.476Z,18.71
2022-09-20T16:54:11.757Z,18.79
2022-09-20T16:56:42.303Z,18.84
2022-09-20T16:59:10.850Z,18.87
2022-09-20T17:01:42.595Z,18.90
2022-09-20T17:04:13.488Z,18.93
2022-09-20T17:06:43.285Z,18.95
2022-09-20T17:09:11.754Z,18.96
2022-09-20T17:11:41.961Z,18.95
2022-09-20T17:14:10.372Z,18.93
2022-09-20T17:16:41.758Z,18.89
2022-09-20T17:19:11.183Z,18.79
2022-09-20T17:21:43.558Z,18.80
2022-09-20T17:24:12.002Z,18.78
2022-09-20T17:26:41.866Z,18.75
2022-09-20T17:29:14.040Z,18.73
2022-09-20T17:31:51.562Z,18.69
2022-09-20T17:34:22.823Z,18.63
2022-09-20T17:36:51.329Z,18.56
2022-09-20T17:39:20.034Z,18.52
2022-09-20T17:41:49.484Z,18.49
2022-09-20T17:44:18.124Z,18.47
2022-09-20T17:46:49.654Z,18.41
2022-09-20T17:49:20.013Z,18.33
2022-09-20T17:51:49.220Z,18.29
2022-09-20T17:54:18.029Z,18.24
2022-09-20T17:56:47.247Z,18.21
2022-09-20T17:59:16.823Z,18.14
2022-09-20T18:01:46.296Z,18.08
2022-09-20T18:04:16.025Z,18.03
2022-09-20T18:06:48.112Z,17.97
2022-09-20T18:09:17.911Z,17.92
2022-09-20T18:11:49.548Z,17.86
2022-09-20T18:14:19.207Z,17.81
2022-09-20T18:16:47.899Z,17.75
2022-09-20T18:19:17.408Z,17.72
2022-09-20T18:21:45.486Z,17.67
2022-09-20T18:24:13.679Z,17.63
2022-09-20T18:26:42.160Z,17.59
2022-09-20T18:29:12.511Z,17.57
2022-09-20T18:31:45.412Z,17.54
2022-09-20T18:34:18.021Z,17.51
2022-09-20T18:36:53.175Z,17.49
2022-09-20T18:39:23.155Z,17.48
2022-09-20T18:41:53.287Z,17.49
2022-09-20T18:44:22.799Z,17.48
2022-09-20T18:46:53.534Z,17.48
2022-09-20T18:49:22.018Z,17.48
2022-09-20T18:51:51.761Z,17.48
2022-09-20T18:54:20.243Z,17.48
2022-09-20T18:56:50.504Z,17.50
2022-09-20T18:59:21.111Z,17.50
2022-09-20T19:02:17.471Z,17.48
2022-09-20T19:05:23.250Z,17.46
2022-09-20T19:08:05.195Z,17.45
2022-09-20T19:10:42.769Z,17.44
2022-09-20T19:13:24.538Z,17.39
2022-09-20T19:16:13.071Z,17.39
2022-09-20T19:19:10.253Z,17.39
2022-09-20T19:21:45.094Z,17.34
2022-09-20T19:24:26.228Z,17.33
2022-09-20T19:26:54.696Z,17.28
2022-09-20T19:29:25.258Z,17.27
2022-09-20T19:31:56.368Z,17.22
2022-09-20T19:34:26.526Z,17.17
2022-09-20T19:37:09.767Z,17.16
2022-09-20T19:40:00.375Z,17.10
2022-09-20T19:42:39.402Z,17.08
2022-09-20T19:45:21.757Z,17.07
2022-09-20T19:47:59.466Z,17.04
2022-09-20T19:50:33.431Z,17.02
2022-09-20T19:53:03.963Z,16.96
2022-09-20T19:55:35.064Z,16.95
2022-09-20T19:58:03.970Z,16.89
2022-09-20T20:00:33.082Z,16.83
2022-09-20T20:03:01.716Z,16.81
2022-09-20T20:05:30.360Z,16.79
2022-09-20T20:08:14.303Z,16.79
2022-09-20T20:10:54.356Z,16.74
2022-09-20T20:13:51.257Z,16.70
2022-09-20T20:16:28.289Z,16.68
2022-09-20T20:19:09.795Z,16.66
2022-09-20T20:21:48.460Z,16.63
2022-09-20T20:24:25.988Z,16.61
2022-09-20T20:26:55.922Z,16.59
2022-09-20T20:29:24.097Z,16.53
2022-09-20T20:31:52.180Z,16.49
2022-09-20T20:34:20.709Z,16.47
2022-09-20T20:36:49.726Z,16.47
2022-09-20T20:39:17.921Z,16.45
2022-09-20T20:41:52.510Z,16.39
2022-09-20T20:44:22.234Z,16.38
2022-09-20T20:46:50.949Z,16.36
2022-09-20T20:49:19.223Z,16.33
2022-09-20T20:51:47.710Z,16.33
2022-09-20T20:54:16.241Z,16.30
2022-09-20T20:56:44.607Z,16.29
2022-09-20T20:59:12.756Z,16.27
2022-09-20T21:01:44.766Z,16.25
2022-09-20T21:04:15.377Z,16.20
2022-09-20T21:06:44.122Z,16.18
2022-09-20T21:09:13.602Z,16.15
2022-09-20T21:11:44.358Z,16.14
2022-09-20T21:14:13.236Z,16.11
2022-09-20T21:16:44.374Z,16.07
2022-09-20T21:19:15.167Z,16.04
2022-09-20T21:21:44.965Z,16.01
2022-09-20T21:24:15.377Z,16.01
2022-09-20T21:26:43.597Z,15.98
2022-09-20T21:29:13.506Z,15.99
2022-09-20T21:31:44.610Z,15.97
2022-09-20T21:34:14.308Z,15.96
2022-09-20T21:36:44.030Z,15.95
2022-09-20T21:39:12.889Z,15.94
2022-09-20T21:41:41.869Z,15.93
2022-09-20T21:44:12.223Z,15.94
2022-09-20T21:46:44.997Z,15.92
2022-09-20T21:49:14.452Z,15.91
2022-09-20T21:51:44.031Z,15.92
2022-09-20T21:54:12.527Z,15.90
2022-09-20T21:56:41.779Z,15.88
2022-09-20T21:59:10.065Z,15.87
2022-09-20T22:01:41.224Z,15.87
2022-09-20T22:04:12.280Z,15.88
2022-09-20T22:06:42.265Z,15.88
2022-09-20T22:09:12.453Z,15.85
2022-09-20T22:11:43.199Z,15.83
2022-09-20T22:14:12.321Z,15.84
2022-09-20T22:16:42.323Z,15.85
2022-09-20T22:19:13.951Z,15.85
2022-09-20T22:21:43.363Z,15.83
2022-09-20T22:24:14.416Z,15.82
2022-09-20T22:26:45.227Z,15.82
2022-09-20T22:29:13.764Z,15.84
2022-09-20T22:31:46.156Z,15.87
2022-09-20T22:34:18.335Z,15.87
2022-09-20T22:36:47.082Z,15.93
2022-09-20T22:39:16.237Z,15.93
2022-09-20T22:41:45.061Z,15.96
2022-09-20T22:44:13.338Z,15.97
2022-09-20T22:46:42.247Z,15.97
2022-09-20T22:49:10.801Z,15.97
2022-09-20T22:51:40.457Z,15.99
2022-09-20T22:54:10.518Z,15.99
2022-09-20T22:56:41.475Z,15.97
2022-09-20T22:59:11.529Z,15.95
2022-09-20T23:01:42.622Z,15.95
2022-09-20T23:04:12.743Z,15.93
2022-09-20T23:06:44.374Z,15.88
2022-09-20T23:09:13.443Z,15.87
2022-09-20T23:11:43.363Z,15.84
2022-09-20T23:14:15.189Z,15.82
2022-09-20T23:16:44.167Z,15.82
2022-09-20T23:19:13.283Z,15.82
2022-09-20T23:21:44.859Z,15.80
2022-09-20T23:24:13.549Z,15.79
2022-09-20T23:26:42.635Z,15.78
2022-09-20T23:29:12.380Z,15.78
2022-09-20T23:31:45.283Z,15.80
2022-09-20T23:34:15.382Z,15.79
2022-09-20T23:36:45.990Z,15.80
2022-09-20T23:39:15.073Z,15.80
2022-09-20T23:41:45.923Z,15.80
2022-09-20T23:44:18.409Z,15.80
2022-09-20T23:46:46.742Z,15.83
2022-09-20T23:49:14.986Z,15.81
2022-09-20T23:51:44.627Z,15.81
2022-09-20T23:54:12.945Z,15.82
2022-09-20T23:56:42.889Z,15.81
2022-09-20T23:59:11.169Z,15.84
